createdAt,value
2023-04-01T00:02:31.652Z,3.22
2023-04-01T00:04:58.528Z,5.88
2023-04-01T00:07:38.530Z,6.00
2023-04-01T00:10:07.053Z,5.10
2023-04-01T00:12:40.518Z,5.82
2023-04-01T00:15:10.020Z,4.47
2023-04-01T00:17:36.876Z,4.95
2023-04-01T00:20:11.590Z,4.15
2023-04-01T00:22:38.634Z,3.08
2023-04-01T00:25:12.754Z,4.38
2023-04-01T00:27:39.695Z,4.93
2023-04-01T00:30:14.720Z,3.83
2023-04-01T00:32:42.121Z,3.00
2023-04-01T00:35:09.694Z,2.92
2023-04-01T00:37:44.494Z,5.53
2023-04-01T00:40:36.616Z,4.00
2023-04-01T00:43:05.827Z,2.60
2023-04-01T00:45:48.578Z,3.80
2023-04-01T00:48:30.036Z,5.70
2023-04-01T00:51:09.465Z,3.83
2023-04-01T00:53:41.235Z,5.18
2023-04-01T00:56:24.602Z,2.92
2023-04-01T00:59:02.518Z,4.90
2023-04-01T01:01:38.531Z,4.07
2023-04-01T01:04:05.604Z,5.10
2023-04-01T01:07:03.600Z,4.75
2023-04-01T01:09:56.892Z,7.28
2023-04-01T01:12:39.535Z,4.00
2023-04-01T01:15:23.936Z,3.88
2023-04-01T01:18:09.576Z,3.42
2023-04-01T01:21:07.533Z,3.17
2023-04-01T01:23:54.545Z,3.85
2023-04-01T01:26:58.603Z,3.67
2023-04-01T01:29:59.624Z,3.65
2023-04-01T01:33:03.630Z,2.90
2023-04-01T01:35:44.606Z,3.63
2023-04-01T01:38:15.553Z,3.78
2023-04-01T01:40:51.589Z,2.60
2023-04-01T01:43:23.858Z,4.53
2023-04-01T01:46:04.569Z,4.47
2023-04-01T01:48:34.555Z,2.83
2023-04-01T01:51:08.602Z,2.80
2023-04-01T01:53:36.153Z,5.50
2023-04-01T01:56:09.550Z,4.30
2023-04-01T01:58:50.559Z,3.00
2023-04-01T02:01:37.656Z,3.22
2023-04-01T02:04:12.660Z,3.10
2023-04-01T02:06:50.689Z,4.03
2023-04-01T02:09:24.573Z,3.22
2023-04-01T02:12:03.523Z,2.88
2023-04-01T02:14:49.164Z,4.63
2023-04-01T02:17:26.539Z,3.67
2023-04-01T02:20:03.577Z,3.65
2023-04-01T02:22:49.523Z,3.80
2023-04-01T02:25:21.186Z,3.42
2023-04-01T02:27:54.612Z,2.95
2023-04-01T02:30:22.351Z,3.35
2023-04-01T02:32:56.659Z,3.38
2023-04-01T02:35:30.750Z,2.72
2023-04-01T02:38:04.567Z,3.28
2023-04-01T02:40:42.423Z,3.60
2023-04-01T02:43:15.619Z,4.45
2023-04-01T02:45:42.468Z,3.80
2023-04-01T02:48:09.677Z,4.63
2023-04-01T02:50:42.678Z,4.00
2023-04-01T02:53:09.573Z,4.82
2023-04-01T02:55:43.602Z,4.80
2023-04-01T02:58:10.827Z,5.53
2023-04-01T03:00:44.589Z,5.78
2023-04-01T03:03:11.917Z,6.38
2023-04-01T03:05:45.616Z,6.20
2023-04-01T03:08:18.892Z,5.20
2023-04-01T03:10:52.599Z,5.45
2023-04-01T03:13:19.429Z,5.95
2023-04-01T03:15:46.305Z,5.80
2023-04-01T03:18:19.613Z,8.23
2023-04-01T03:20:46.641Z,5.78
2023-04-01T03:23:20.629Z,5.72
2023-04-01T03:25:47.878Z,6.93
2023-04-01T03:28:21.672Z,5.88
2023-04-01T03:30:48.491Z,7.80
2023-04-01T03:33:21.645Z,11.93
2023-04-01T03:35:48.620Z,8.40
2023-04-01T03:38:23.512Z,7.20
2023-04-01T03:40:50.433Z,8.75
2023-04-01T03:43:24.603Z,8.60
2023-04-01T03:45:58.666Z,9.23
2023-04-01T03:48:26.782Z,9.57
2023-04-01T03:50:59.636Z,8.75
2023-04-01T03:53:26.470Z,8.60
2023-04-01T03:55:59.611Z,8.73
2023-04-01T03:58:26.629Z,8.00
2023-04-01T04:00:59.600Z,9.35
2023-04-01T04:03:27.467Z,8.63
2023-04-01T04:06:00.671Z,9.43
2023-04-01T04:08:33.761Z,7.35
2023-04-01T04:11:07.661Z,7.93
2023-04-01T04:13:34.740Z,8.00
2023-04-01T04:16:07.728Z,7.82
2023-04-01T04:18:34.640Z,8.40
2023-04-01T04:21:07.762Z,9.13
2023-04-01T04:23:41.802Z,7.80
2023-04-01T04:26:10.663Z,6.90
2023-04-01T04:28:43.599Z,7.60
2023-04-01T04:31:10.704Z,6.70
2023-04-01T04:33:44.643Z,7.53
2023-04-01T04:36:11.724Z,7.13
2023-04-01T04:38:45.692Z,7.80
2023-04-01T04:41:16.518Z,8.18
2023-04-01T04:43:50.696Z,6.47
2023-04-01T04:46:23.682Z,6.10
2023-04-01T04:48:57.599Z,7.30
2023-04-01T04:51:31.578Z,6.80
2023-04-01T04:53:58.486Z,6.85
2023-04-01T04:56:33.699Z,7.10
2023-04-01T04:59:00.841Z,7.25
2023-04-01T05:01:34.727Z,6.85
2023-04-01T05:04:01.710Z,6.53
2023-04-01T05:06:37.658Z,6.97
2023-04-01T05:09:11.256Z,6.75
2023-04-01T05:11:44.750Z,7.07
2023-04-01T05:14:18.596Z,8.50
2023-04-01T05:16:51.756Z,5.53
2023-04-01T05:19:18.714Z,7.57
2023-04-01T05:21:51.700Z,5.57
2023-04-01T05:24:18.613Z,5.32
2023-04-01T05:26:45.583Z,5.78
2023-04-01T05:29:19.690Z,5.28
2023-04-01T05:31:46.689Z,5.97
2023-04-01T05:34:20.726Z,7.38
2023-04-01T05:36:47.620Z,4.68
2023-04-01T05:39:20.655Z,4.40
2023-04-01T05:41:47.405Z,5.47
2023-04-01T05:44:20.636Z,5.50
2023-04-01T05:46:47.653Z,4.75
2023-04-01T05:49:20.723Z,8.95
2023-04-01T05:51:47.689Z,6.50
2023-04-01T05:54:14.610Z,5.35
2023-04-01T05:56:48.682Z,6.75
2023-04-01T05:59:16.054Z,5.28
2023-04-01T06:01:49.834Z,5.57
2023-04-01T06:04:19.458Z,5.60
2023-04-01T06:06:52.880Z,6.10
2023-04-01T06:09:27.302Z,5.25
2023-04-01T06:12:31.697Z,5.10
2023-04-01T06:15:11.812Z,5.78
2023-04-01T06:18:10.838Z,4.82
2023-04-01T06:20:52.259Z,5.47
2023-04-01T06:23:57.700Z,5.47
2023-04-01T06:26:45.700Z,5.32
2023-04-01T06:29:27.773Z,8.55
2023-04-01T06:32:13.978Z,5.15
2023-04-01T06:35:02.690Z,6.20
2023-04-01T06:37:51.436Z,4.47
2023-04-01T06:40:53.000Z,4.68
2023-04-01T06:44:01.737Z,5.07
2023-04-01T06:46:31.536Z,8.98
2023-04-01T06:52:21.156Z,6.38
2023-04-01T06:55:08.631Z,5.60
2023-04-01T06:57:42.486Z,8.30
2023-04-01T07:00:34.813Z,6.97
2023-04-01T07:03:24.698Z,6.95
2023-04-01T07:05:59.690Z,6.70
2023-04-01T07:08:37.944Z,6.78
2023-04-01T07:11:16.745Z,7.22
2023-04-01T07:13:53.613Z,7.47
2023-04-01T07:16:51.887Z,7.47
2023-04-01T07:19:41.722Z,5.70
2023-04-01T07:22:28.749Z,7.05
2023-04-01T07:24:55.933Z,7.57
2023-04-01T07:27:29.655Z,7.28
2023-04-01T07:30:01.358Z,9.13
2023-04-01T07:33:05.793Z,7.80
2023-04-01T07:35:48.720Z,7.57
2023-04-01T07:38:54.875Z,8.68
2023-04-01T07:41:24.529Z,6.30
2023-04-01T07:44:16.750Z,5.78
2023-04-01T07:47:11.929Z,5.88
2023-04-01T07:50:07.758Z,5.47
2023-04-01T07:53:03.001Z,5.25
2023-04-01T07:55:51.762Z,4.93
2023-04-01T07:58:32.779Z,5.50
2023-04-01T08:01:22.430Z,6.88
2023-04-01T08:04:04.978Z,5.85
2023-04-01T08:07:11.045Z,5.40
2023-04-01T08:10:02.753Z,4.82
2023-04-01T08:13:14.704Z,5.03
2023-04-01T08:15:56.687Z,6.30
2023-04-01T08:18:44.701Z,5.63
2023-04-01T08:21:28.774Z,7.13
2023-04-01T08:24:24.759Z,6.32
2023-04-01T08:26:58.370Z,5.60
2023-04-01T08:29:45.707Z,4.70
2023-04-01T08:32:25.781Z,11.13
2023-04-01T08:35:03.329Z,4.72
2023-04-01T08:37:39.730Z,4.22
2023-04-01T08:40:30.638Z,4.45
2023-04-01T08:43:38.751Z,4.13
2023-04-01T08:46:53.106Z,5.38
2023-04-01T08:49:37.773Z,5.60
2023-04-01T08:52:22.958Z,4.40
2023-04-01T08:55:23.780Z,3.60
2023-04-01T08:58:08.756Z,4.88
2023-04-01T09:00:55.786Z,7.60
2023-04-01T09:04:06.798Z,3.97
2023-04-01T09:06:42.724Z,4.38
2023-04-01T09:09:40.837Z,4.30
2023-04-01T09:12:53.810Z,4.35
2023-04-01T09:15:44.736Z,4.85
2023-04-01T09:18:31.861Z,6.15
2023-04-01T09:21:13.463Z,3.88
2023-04-01T09:24:28.767Z,3.63
2023-04-01T09:27:24.974Z,3.63
2023-04-01T09:30:18.927Z,3.50
2023-04-01T09:33:10.824Z,3.35
2023-04-01T09:35:48.631Z,4.10
2023-04-01T09:38:39.768Z,3.40
2023-04-01T09:41:18.559Z,3.53
2023-04-01T09:44:31.797Z,3.85
2023-04-01T09:46:58.474Z,4.57
2023-04-01T09:49:46.717Z,4.95
2023-04-01T09:52:29.757Z,4.05
2023-04-01T09:55:11.872Z,3.95
2023-04-01T09:58:00.180Z,3.20
2023-04-01T10:00:42.809Z,3.28
2023-04-01T10:03:12.512Z,3.70
2023-04-01T10:06:37.857Z,3.50
2023-04-01T10:10:15.837Z,3.63
2023-04-01T10:12:52.078Z,2.60
2023-04-01T10:15:52.851Z,3.20
2023-04-01T10:19:08.662Z,3.17
2023-04-01T10:21:52.783Z,3.40
2023-04-01T10:24:25.564Z,3.85
2023-04-01T10:27:04.809Z,3.80
2023-04-01T10:29:37.556Z,3.75
2023-04-01T10:32:35.776Z,4.63
2023-04-01T10:35:11.793Z,3.22
2023-04-01T10:38:25.063Z,4.28
2023-04-01T10:41:29.700Z,3.65
2023-04-01T10:44:12.812Z,3.85
2023-04-01T10:47:19.757Z,4.00
2023-04-01T10:50:21.816Z,5.18
2023-04-01T10:53:05.476Z,3.50
2023-04-01T10:56:17.720Z,4.15
2023-04-01T10:59:21.952Z,3.65
2023-04-01T11:02:15.241Z,3.50
2023-04-01T11:04:54.849Z,3.55
2023-04-01T11:08:05.393Z,3.13
2023-04-01T11:11:42.909Z,3.45
2023-04-01T11:15:02.900Z,3.42
2023-04-01T11:18:17.859Z,4.32
2023-04-01T11:20:44.523Z,2.90
2023-04-01T11:23:51.930Z,3.08
2023-04-01T11:26:48.900Z,3.50
2023-04-01T11:29:44.287Z,3.45
2023-04-01T11:32:31.863Z,4.63
2023-04-01T11:35:30.793Z,2.80
2023-04-01T11:38:22.834Z,3.30
2023-04-01T11:41:23.941Z,3.08
2023-04-01T11:44:18.869Z,3.17
2023-04-01T11:47:08.451Z,3.97
2023-04-01T11:49:57.793Z,3.53
2023-04-01T11:53:08.885Z,3.58
2023-04-01T11:56:30.819Z,3.25
2023-04-01T11:59:23.828Z,2.50
2023-04-01T12:01:56.603Z,2.65
2023-04-01T12:04:53.984Z,6.45
2023-04-01T12:07:51.880Z,3.67
2023-04-01T12:10:49.882Z,2.78
2023-04-01T12:13:45.829Z,2.85
2023-04-01T12:16:35.901Z,3.63
2023-04-01T12:19:27.849Z,3.90
2023-04-01T12:22:28.892Z,4.00
2023-04-01T12:25:17.333Z,4.65
2023-04-01T12:28:09.837Z,5.35
2023-04-01T12:30:53.847Z,6.15
2023-04-01T12:33:52.844Z,5.13
2023-04-01T12:36:54.873Z,5.15
2023-04-01T12:39:48.172Z,5.25
2023-04-01T12:42:48.910Z,5.40
2023-04-01T12:45:43.912Z,4.78
2023-04-01T12:48:38.914Z,3.78
2023-04-01T12:51:11.968Z,3.92
2023-04-01T12:54:13.876Z,3.85
2023-04-01T12:56:53.511Z,3.17
2023-04-01T12:59:50.871Z,3.10
2023-04-01T13:02:32.968Z,3.33
2023-04-01T13:05:22.897Z,3.30
2023-04-01T13:08:21.203Z,3.10
2023-04-01T13:10:56.878Z,2.88
2023-04-01T13:13:42.445Z,3.38
2023-04-01T13:16:21.931Z,3.03
2023-04-01T13:19:12.965Z,3.42
2023-04-01T13:22:05.937Z,3.60
2023-04-01T13:24:57.998Z,3.65
2023-04-01T13:27:31.040Z,3.58
2023-04-01T13:30:28.937Z,3.70
2023-04-01T13:33:43.903Z,3.22
2023-04-01T13:36:52.944Z,2.85
2023-04-01T13:39:37.906Z,3.83
2023-04-01T13:42:23.859Z,2.28
2023-04-01T13:45:15.542Z,2.40
2023-04-01T13:47:59.967Z,2.65
2023-04-01T13:50:40.910Z,2.50
2023-04-01T13:53:41.873Z,3.88
2023-04-01T13:56:39.113Z,3.15
2023-04-01T13:59:21.929Z,3.88
2023-04-01T14:03:02.046Z,4.05
2023-04-01T14:06:16.512Z,3.22
2023-04-01T14:09:33.001Z,3.70
2023-04-01T14:12:24.053Z,4.68
2023-04-01T14:15:32.373Z,4.72
2023-04-01T14:18:40.939Z,6.40
2023-04-01T14:21:43.353Z,5.30
2023-04-01T14:24:37.594Z,5.97
2023-04-01T14:27:39.046Z,5.60
2023-04-01T14:30:22.197Z,5.82
2023-04-01T14:33:29.305Z,6.45
2023-04-01T14:36:27.177Z,7.10
2023-04-01T14:39:58.142Z,7.20
2023-04-01T14:42:43.034Z,5.95
2023-04-01T14:45:19.030Z,6.28
2023-04-01T14:48:06.134Z,5.43
2023-04-01T14:50:45.957Z,6.35
2023-04-01T14:53:35.126Z,6.13
2023-04-01T14:56:09.148Z,4.82
2023-04-01T14:58:55.104Z,6.13
2023-04-01T15:01:51.093Z,6.18
2023-04-01T15:05:09.821Z,6.35
2023-04-01T15:08:17.302Z,7.03
2023-04-01T15:11:15.134Z,5.93
2023-04-01T15:14:23.171Z,7.32
2023-04-01T15:17:14.286Z,7.88
2023-04-01T15:20:33.247Z,8.93
2023-04-01T15:23:03.385Z,9.60
2023-04-01T15:25:54.267Z,9.57
2023-04-01T15:29:01.831Z,9.93
2023-04-01T15:32:01.168Z,9.63
2023-04-01T15:34:41.939Z,10.05
2023-04-01T15:37:53.122Z,9.15
2023-04-01T15:40:58.271Z,9.45
2023-04-01T15:43:52.143Z,8.50
2023-04-01T15:46:50.344Z,8.18
2023-04-01T15:49:30.332Z,8.85
2023-04-01T15:52:22.802Z,8.60
2023-04-01T15:55:15.186Z,9.07
2023-04-01T15:58:11.163Z,8.45
2023-04-01T16:01:06.184Z,9.60
2023-04-01T16:04:07.354Z,9.43
2023-04-01T16:07:22.147Z,9.93
2023-04-01T16:10:28.005Z,10.00
2023-04-01T16:13:36.183Z,9.48
2023-04-01T16:16:18.197Z,10.80
2023-04-01T16:19:18.969Z,9.23
2023-04-01T16:22:23.299Z,9.38
2023-04-01T16:25:10.231Z,8.40
2023-04-01T16:27:56.793Z,7.55
2023-04-01T16:30:52.167Z,6.22
2023-04-01T16:33:56.888Z,5.90
2023-04-01T16:37:08.248Z,5.47
2023-04-01T16:39:44.787Z,6.57
2023-04-01T16:42:28.112Z,6.85
2023-04-01T16:45:16.724Z,8.48
2023-04-01T16:48:08.178Z,9.77
2023-04-01T16:51:06.148Z,10.63
2023-04-01T16:53:51.071Z,10.18
2023-04-01T16:56:39.820Z,8.75
2023-04-01T16:59:28.372Z,9.27
2023-04-01T17:02:12.331Z,6.50
2023-04-01T17:04:55.258Z,6.97
2023-04-01T17:08:07.205Z,8.20
2023-04-01T17:10:53.394Z,7.93
2023-04-01T17:13:27.149Z,8.35
2023-04-01T17:16:13.217Z,9.10
2023-04-01T17:19:11.128Z,9.57
2023-04-01T17:22:11.985Z,10.02
2023-04-01T17:24:45.099Z,8.43
2023-04-01T17:27:30.728Z,7.63
2023-04-01T17:30:40.084Z,6.78
2023-04-01T17:33:32.245Z,6.00
2023-04-01T17:36:24.071Z,6.28
2023-04-01T17:39:12.318Z,6.78
2023-04-01T17:42:20.249Z,6.75
2023-04-01T17:45:02.586Z,5.55
2023-04-01T17:47:52.553Z,4.90
2023-04-01T17:50:41.248Z,4.10
2023-04-01T17:53:44.273Z,5.25
2023-04-01T17:56:24.906Z,5.57
2023-04-01T17:59:10.217Z,6.25
2023-04-01T18:02:19.102Z,7.43
2023-04-01T18:05:04.193Z,7.28
2023-04-01T18:07:58.856Z,6.63
2023-04-01T18:10:32.844Z,6.65
2023-04-01T18:15:50.338Z,6.13
2023-04-01T18:18:55.265Z,6.47
2023-04-01T18:21:45.193Z,5.88
2023-04-01T18:31:10.238Z,5.57
2023-04-01T18:34:05.108Z,5.50
2023-04-01T18:40:07.076Z,6.45
2023-04-01T18:43:13.731Z,7.57
2023-04-01T18:56:37.493Z,7.80
2023-04-01T19:13:20.082Z,4.53
2023-04-01T19:16:11.995Z,4.07
2023-04-01T19:26:48.880Z,4.60
2023-04-01T19:39:55.160Z,2.97
2023-04-01T19:46:23.302Z,3.55
2023-04-01T19:49:34.107Z,4.00
2023-04-01T20:00:17.999Z,4.53
2023-04-01T20:03:19.383Z,3.78
2023-04-01T20:06:26.832Z,3.53
2023-04-01T20:16:01.193Z,2.58
2023-04-01T20:22:16.246Z,2.22
2023-04-01T20:27:50.376Z,2.20
2023-04-01T20:38:22.265Z,1.90
2023-04-01T20:47:50.769Z,2.10
2023-04-01T21:14:56.134Z,2.45
2023-04-01T21:28:33.338Z,2.67
2023-04-01T21:31:44.399Z,3.17
2023-04-01T21:38:00.687Z,3.90
2023-04-01T21:45:05.216Z,3.78
2023-04-01T21:58:48.404Z,7.00
2023-04-01T22:05:47.188Z,6.35
2023-04-01T22:08:32.626Z,6.30
2023-04-01T22:27:47.529Z,6.40
2023-04-01T23:10:40.240Z,5.70
2023-04-01T23:31:56.350Z,5.17
2023-04-01T23:35:20.245Z,5.70
2023-04-01T23:53:38.313Z,5.63
